createdAt,value
2019-04-03T00:00:13.039Z,11.15
2019-04-03T00:02:43.698Z,11.20
2019-04-03T00:05:13.971Z,11.21
2019-04-03T00:07:44.274Z,11.21
2019-04-03T00:10:15.646Z,11.24
2019-04-03T00:12:47.173Z,11.25
2019-04-03T00:15:17.984Z,11.25
2019-04-03T00:17:48.896Z,11.27
2019-04-03T00:20:19.986Z,11.26
2019-04-03T00:22:52.302Z,11.29
2019-04-03T00:25:22.861Z,11.31
2019-04-03T00:27:55.602Z,11.33
2019-04-03T00:30:25.954Z,11.35
2019-04-03T00:32:56.734Z,11.34
2019-04-03T00:35:27.028Z,11.35
2019-04-03T00:37:57.923Z,11.36
2019-04-03T00:40:28.395Z,11.35
2019-04-03T00:42:58.909Z,11.33
2019-04-03T00:45:29.201Z,11.35
2019-04-03T00:47:59.501Z,11.39
2019-04-03T00:50:30.291Z,11.34
2019-04-03T00:53:00.670Z,11.30
2019-04-03T00:55:32.033Z,11.30
2019-04-03T00:58:03.943Z,11.26
2019-04-03T01:00:34.189Z,11.25
2019-04-03T01:03:05.546Z,11.26
2019-04-03T01:05:35.993Z,11.25
2019-04-03T01:08:06.244Z,11.24
2019-04-03T01:10:36.465Z,11.23
2019-04-03T01:13:06.697Z,11.23
2019-04-03T01:15:37.349Z,11.21
2019-04-03T01:18:07.603Z,11.14
2019-04-03T01:20:38.277Z,11.14
2019-04-03T01:23:08.596Z,11.15
2019-04-03T01:25:39.705Z,11.17
2019-04-03T01:28:11.775Z,11.12
2019-04-03T01:30:44.246Z,11.14
2019-04-03T01:33:16.396Z,11.09
2019-04-03T01:35:47.396Z,11.04
2019-04-03T01:38:22.023Z,10.97
2019-04-03T01:40:52.346Z,10.95
2019-04-03T01:43:23.556Z,10.91
2019-04-03T01:45:56.597Z,10.91
2019-04-03T01:48:26.721Z,10.90
2019-04-03T01:50:59.608Z,10.86
2019-04-03T01:53:32.187Z,10.80
2019-04-03T01:56:04.317Z,10.78
2019-04-03T01:58:36.503Z,10.72
2019-04-03T02:01:08.052Z,10.70
2019-04-03T02:03:41.162Z,10.72
2019-04-03T02:06:13.289Z,10.67
2019-04-03T02:08:44.913Z,10.68
2019-04-03T02:11:16.718Z,10.65
2019-04-03T02:13:47.798Z,10.63
2019-04-03T02:16:18.103Z,10.66
2019-04-03T02:18:49.376Z,10.68
2019-04-03T02:21:20.201Z,10.73
2019-04-03T02:23:50.582Z,10.71
2019-04-03T02:26:21.586Z,10.76
2019-04-03T02:28:53.278Z,10.76
2019-04-03T02:31:23.669Z,10.80
2019-04-03T02:33:54.380Z,10.79
2019-04-03T02:36:24.730Z,10.84
2019-04-03T02:38:55.418Z,10.82
2019-04-03T02:41:25.687Z,10.82
2019-04-03T02:43:57.216Z,10.83
2019-04-03T02:46:28.678Z,10.85
2019-04-03T02:48:59.516Z,10.91
2019-04-03T02:51:30.354Z,10.93
2019-04-03T02:54:02.302Z,10.92
2019-04-03T02:56:33.201Z,10.89
2019-04-03T02:59:03.555Z,10.85
2019-04-03T03:01:34.021Z,10.81
2019-04-03T03:04:04.718Z,10.75
2019-04-03T03:06:35.791Z,10.76
2019-04-03T03:09:07.036Z,10.75
2019-04-03T03:11:37.841Z,10.77
2019-04-03T03:14:08.924Z,10.71
2019-04-03T03:16:40.382Z,10.67
2019-04-03T03:19:12.916Z,10.65
2019-04-03T03:21:44.726Z,10.66
2019-04-03T03:24:15.582Z,10.65
2019-04-03T03:26:45.956Z,10.64
2019-04-03T03:29:19.850Z,10.64
2019-04-03T03:32:09.386Z,10.66
2019-04-03T03:34:45.219Z,10.62
2019-04-03T03:36:58.818Z,10.60
2019-04-03T03:39:26.425Z,10.57
2019-04-03T03:41:59.029Z,10.48
2019-04-03T03:44:30.023Z,10.46
2019-04-03T03:47:02.276Z,10.43
2019-04-03T03:49:32.471Z,10.39
2019-04-03T03:52:04.986Z,10.40
2019-04-03T03:54:35.311Z,10.39
2019-04-03T03:57:07.273Z,10.39
2019-04-03T03:59:38.785Z,10.38
2019-04-03T04:02:09.435Z,10.36
2019-04-03T04:04:39.754Z,10.37
2019-04-03T04:07:10.185Z,10.32
2019-04-03T04:09:41.054Z,10.28
2019-04-03T04:12:11.456Z,10.29
2019-04-03T04:14:41.951Z,10.29
2019-04-03T04:17:17.711Z,10.24
2019-04-03T04:19:47.063Z,10.22
2019-04-03T04:22:18.730Z,10.17
2019-04-03T04:24:49.823Z,10.15
2019-04-03T04:27:20.391Z,10.16
2019-04-03T04:29:50.800Z,10.19
2019-04-03T04:32:21.469Z,10.21
2019-04-03T04:34:51.837Z,10.18
2019-04-03T04:37:22.569Z,10.17
2019-04-03T04:39:53.543Z,10.17
2019-04-03T04:42:24.492Z,10.06
2019-04-03T04:44:54.693Z,10.02
2019-04-03T04:47:25.095Z,9.98
2019-04-03T04:49:55.777Z,9.95
2019-04-03T04:52:27.618Z,9.92
2019-04-03T04:55:01.376Z,9.91
2019-04-03T04:57:30.621Z,9.89
2019-04-03T05:00:01.067Z,9.89
2019-04-03T05:02:31.460Z,9.93
2019-04-03T05:05:02.008Z,9.94
2019-04-03T05:07:32.636Z,9.94
2019-04-03T05:10:05.357Z,9.93
2019-04-03T05:12:35.146Z,9.98
2019-04-03T05:15:06.352Z,10.03
2019-04-03T05:17:36.775Z,10.05
2019-04-03T05:20:07.761Z,10.11
2019-04-03T05:22:39.546Z,10.17
2019-04-03T05:25:11.250Z,10.19
2019-04-03T05:27:42.080Z,10.23
2019-04-03T05:30:14.394Z,10.21
2019-04-03T05:32:45.446Z,10.24
2019-04-03T05:35:16.152Z,10.27
2019-04-03T05:37:50.323Z,10.25
2019-04-03T05:40:19.617Z,10.26
2019-04-03T05:42:49.980Z,10.17
2019-04-03T05:45:20.416Z,10.19
2019-04-03T05:47:51.825Z,10.29
2019-04-03T05:50:22.230Z,10.32
2019-04-03T05:52:52.720Z,10.30
2019-04-03T05:55:23.444Z,10.27
2019-04-03T05:57:55.104Z,10.27
2019-04-03T06:00:26.086Z,10.24
2019-04-03T06:02:58.040Z,10.24
2019-04-03T06:05:29.047Z,10.26
2019-04-03T06:07:59.394Z,10.24
2019-04-03T06:10:31.614Z,10.26
2019-04-03T06:13:05.117Z,10.23
2019-04-03T06:15:34.465Z,10.20
2019-04-03T06:18:05.113Z,10.15
2019-04-03T06:20:35.528Z,10.15
2019-04-03T06:23:05.888Z,10.12
2019-04-03T06:25:37.055Z,10.11
2019-04-03T06:28:07.601Z,10.12
2019-04-03T06:30:37.900Z,10.15
2019-04-03T06:33:08.479Z,10.14
2019-04-03T06:35:39.165Z,10.12
2019-04-03T06:38:09.708Z,10.23
2019-04-03T06:40:40.845Z,10.36
2019-04-03T06:43:15.331Z,10.44
2019-04-03T06:45:46.849Z,10.53
2019-04-03T06:48:17.114Z,10.67
2019-04-03T06:50:48.230Z,10.74
2019-04-03T06:53:27.145Z,10.82
2019-04-03T06:55:55.519Z,10.87
2019-04-03T06:58:36.942Z,10.96
2019-04-03T07:00:59.673Z,11.02
2019-04-03T07:03:33.675Z,11.13
2019-04-03T07:06:03.484Z,11.13
2019-04-03T07:08:36.140Z,11.25
2019-04-03T07:11:06.875Z,11.38
2019-04-03T07:13:39.676Z,11.47
2019-04-03T07:16:10.488Z,11.49
2019-04-03T07:18:40.886Z,11.58
2019-04-03T07:21:11.862Z,11.64
2019-04-03T07:23:42.342Z,11.65
2019-04-03T07:26:13.550Z,11.71
2019-04-03T07:28:44.002Z,11.74
2019-04-03T07:31:15.485Z,11.79
2019-04-03T07:33:45.774Z,11.81
2019-04-03T07:36:16.831Z,11.90
2019-04-03T07:38:47.167Z,12.03
2019-04-03T07:41:17.433Z,12.07
2019-04-03T07:43:49.352Z,12.18
2019-04-03T07:46:19.676Z,12.25
2019-04-03T07:48:52.586Z,12.20
2019-04-03T07:51:22.993Z,12.23
2019-04-03T07:53:53.847Z,12.23
2019-04-03T07:56:31.497Z,12.35
2019-04-03T07:59:03.276Z,12.46
2019-04-03T08:01:34.249Z,12.53
2019-04-03T08:04:04.690Z,12.59
2019-04-03T08:06:36.331Z,12.65
2019-04-03T08:09:10.379Z,12.73
2019-04-03T08:11:42.118Z,12.72
2019-04-03T08:14:12.443Z,12.72
2019-04-03T08:16:43.320Z,12.65
2019-04-03T08:19:14.718Z,12.65
2019-04-03T08:21:44.959Z,12.75
2019-04-03T08:24:16.569Z,12.79
2019-04-03T08:26:47.138Z,12.80
2019-04-03T08:29:17.575Z,12.89
2019-04-03T08:31:49.088Z,12.75
2019-04-03T08:34:20.596Z,12.92
2019-04-03T08:36:50.879Z,12.92
2019-04-03T08:39:21.407Z,13.00
2019-04-03T08:41:53.780Z,13.18
2019-04-03T08:44:26.938Z,13.21
2019-04-03T08:46:59.527Z,13.16
2019-04-03T08:49:33.882Z,13.11
2019-04-03T08:52:05.670Z,13.11
2019-04-03T08:54:37.322Z,13.01
2019-04-03T08:57:07.557Z,13.01
2019-04-03T08:59:38.287Z,13.14
2019-04-03T09:02:12.545Z,13.39
2019-04-03T09:04:41.059Z,13.39
2019-04-03T09:07:12.228Z,13.38
2019-04-03T09:09:44.319Z,13.38
2019-04-03T09:12:14.806Z,13.49
2019-04-03T09:14:45.753Z,13.60
2019-04-03T09:17:15.986Z,13.51
2019-04-03T09:19:48.114Z,13.35
2019-04-03T09:22:21.614Z,13.49
2019-04-03T09:24:52.539Z,13.59
2019-04-03T09:27:23.083Z,13.68
2019-04-03T09:29:55.075Z,13.61
2019-04-03T09:32:25.665Z,14.03
2019-04-03T09:34:56.419Z,14.14
2019-04-03T09:37:26.993Z,14.08
2019-04-03T09:39:57.547Z,14.11
2019-04-03T09:42:28.487Z,14.31
2019-04-03T09:44:59.940Z,14.26
2019-04-03T09:47:33.077Z,14.33
2019-04-03T09:50:02.630Z,14.24
2019-04-03T09:52:41.462Z,14.14
2019-04-03T09:55:05.803Z,14.16
2019-04-03T09:57:36.024Z,14.13
2019-04-03T10:00:10.644Z,14.06
2019-04-03T10:02:40.339Z,14.05
2019-04-03T10:05:11.628Z,13.94
2019-04-03T10:07:42.205Z,13.39
2019-04-03T10:10:14.025Z,13.04
2019-04-03T10:12:47.327Z,13.04
2019-04-03T10:15:19.122Z,13.16
2019-04-03T10:17:49.918Z,13.16
2019-04-03T10:20:21.368Z,13.09
2019-04-03T10:22:51.875Z,13.07
2019-04-03T10:25:22.099Z,12.91
2019-04-03T10:27:52.432Z,12.91
2019-04-03T10:30:23.081Z,12.71
2019-04-03T10:32:53.895Z,12.71
2019-04-03T10:35:25.897Z,12.66
2019-04-03T10:37:56.257Z,12.49
2019-04-03T10:40:26.504Z,12.49
2019-04-03T10:42:59.818Z,12.48
2019-04-03T10:45:29.182Z,12.37
2019-04-03T10:47:59.627Z,12.20
2019-04-03T10:50:32.661Z,12.22
2019-04-03T10:53:02.853Z,12.25
2019-04-03T10:55:33.492Z,12.14
2019-04-03T10:58:06.559Z,12.13
2019-04-03T11:00:36.089Z,12.12
2019-04-03T11:03:06.444Z,11.96
2019-04-03T11:05:36.760Z,12.05
2019-04-03T11:08:07.321Z,11.88
2019-04-03T11:10:38.258Z,11.82
2019-04-03T11:13:09.096Z,11.75
2019-04-03T11:15:39.548Z,11.77
2019-04-03T11:18:10.228Z,11.72
2019-04-03T11:20:41.137Z,11.65
2019-04-03T11:23:11.896Z,11.72
2019-04-03T11:25:42.397Z,11.72
2019-04-03T11:28:17.154Z,11.76
2019-04-03T11:30:49.615Z,11.74
2019-04-03T11:33:20.321Z,11.75
2019-04-03T11:35:52.212Z,11.80
2019-04-03T11:38:28.256Z,11.74
2019-04-03T11:40:57.157Z,11.72
2019-04-03T11:43:31.309Z,11.73
2019-04-03T11:46:07.825Z,11.70
2019-04-03T11:48:42.273Z,11.69
2019-04-03T11:51:11.990Z,11.59
2019-04-03T11:53:46.011Z,11.53
2019-04-03T11:56:16.892Z,11.52
2019-04-03T11:58:51.887Z,11.61
2019-04-03T12:01:21.876Z,11.56
2019-04-03T12:03:53.191Z,11.53
2019-04-03T12:06:26.467Z,11.57
2019-04-03T12:09:00.543Z,11.56
2019-04-03T12:11:31.207Z,11.56
2019-04-03T12:14:01.593Z,11.53
2019-04-03T12:16:32.643Z,11.51
2019-04-03T12:19:05.151Z,11.56
2019-04-03T12:21:41.261Z,11.33
2019-04-03T12:24:11.790Z,11.32
2019-04-03T12:26:46.279Z,11.22
2019-04-03T12:29:17.246Z,11.26
2019-04-03T12:31:49.416Z,11.28
2019-04-03T12:34:22.941Z,11.36
2019-04-03T12:36:56.181Z,11.42
2019-04-03T12:39:27.862Z,11.38
2019-04-03T12:41:58.453Z,11.34
2019-04-03T12:44:30.346Z,11.34
2019-04-03T12:47:03.068Z,11.34
2019-04-03T12:49:33.423Z,11.38
2019-04-03T12:52:04.742Z,11.26
2019-04-03T12:54:35.530Z,11.29
2019-04-03T12:57:06.221Z,11.29
2019-04-03T12:59:39.338Z,11.36
2019-04-03T13:02:09.406Z,11.44
2019-04-03T13:04:39.716Z,11.30
2019-04-03T13:07:13.430Z,11.30
2019-04-03T13:09:42.521Z,11.35
2019-04-03T13:12:14.000Z,11.08
2019-04-03T13:14:45.142Z,11.17
2019-04-03T13:17:15.598Z,11.12
2019-04-03T13:19:46.299Z,11.07
2019-04-03T13:22:18.270Z,11.04
2019-04-03T13:24:49.684Z,10.94
2019-04-03T13:27:20.511Z,10.88
2019-04-03T13:29:52.343Z,10.85
2019-04-03T13:32:23.699Z,10.83
2019-04-03T13:34:54.515Z,10.73
2019-04-03T13:37:25.716Z,10.74
2019-04-03T13:39:56.300Z,10.82
2019-04-03T13:42:27.042Z,10.82
2019-04-03T13:44:59.301Z,10.94
2019-04-03T13:47:32.224Z,11.03
2019-04-03T13:50:03.587Z,11.05
2019-04-03T13:52:41.387Z,11.03
2019-04-03T13:55:10.204Z,11.07
2019-04-03T13:57:40.738Z,11.03
2019-04-03T14:00:19.627Z,10.97
2019-04-03T14:02:46.033Z,10.99
2019-04-03T14:05:17.932Z,11.07
2019-04-03T14:07:48.753Z,11.15
2019-04-03T14:10:19.804Z,11.25
2019-04-03T14:12:53.171Z,11.22
2019-04-03T14:15:24.150Z,11.12
2019-04-03T14:17:58.407Z,11.07
2019-04-03T14:20:28.690Z,11.08
2019-04-03T14:23:02.840Z,11.03
2019-04-03T14:25:36.812Z,10.91
2019-04-03T14:28:04.736Z,10.88
2019-04-03T14:30:36.387Z,10.95
2019-04-03T14:33:08.951Z,11.01
2019-04-03T14:35:53.079Z,11.15
2019-04-03T14:38:21.681Z,11.23
2019-04-03T14:40:52.834Z,11.25
2019-04-03T14:43:24.213Z,11.23
2019-04-03T14:45:54.801Z,11.31
2019-04-03T14:48:27.551Z,11.42
2019-04-03T14:50:58.762Z,11.46
2019-04-03T14:53:32.240Z,11.56
2019-04-03T14:56:03.029Z,11.68
2019-04-03T14:58:34.324Z,11.75
2019-04-03T15:01:05.356Z,11.76
2019-04-03T15:03:37.998Z,11.70
2019-04-03T15:06:08.808Z,11.50
2019-04-03T15:08:40.629Z,11.49
2019-04-03T15:11:11.108Z,11.36
2019-04-03T15:13:42.124Z,11.37
2019-04-03T15:16:14.479Z,11.33
2019-04-03T15:18:45.321Z,11.31
2019-04-03T15:21:17.068Z,11.30
2019-04-03T15:23:48.032Z,11.28
2019-04-03T15:26:19.387Z,11.15
2019-04-03T15:28:50.910Z,11.21
2019-04-03T15:31:23.867Z,11.15
2019-04-03T15:33:55.779Z,11.16
2019-04-03T15:36:26.338Z,11.11
2019-04-03T15:38:59.878Z,11.05
2019-04-03T15:41:33.341Z,11.06
2019-04-03T15:44:02.955Z,10.94
2019-04-03T15:46:34.340Z,10.98
2019-04-03T15:49:05.331Z,10.89
2019-04-03T15:51:37.929Z,10.89
2019-04-03T15:54:13.517Z,10.98
2019-04-03T15:56:44.899Z,10.95
2019-04-03T15:59:16.286Z,10.94
2019-04-03T16:01:49.941Z,10.93
2019-04-03T16:04:20.754Z,10.89
2019-04-03T16:06:53.925Z,10.97
2019-04-03T16:09:24.499Z,10.97
2019-04-03T16:11:56.233Z,11.06
2019-04-03T16:14:28.531Z,11.01
2019-04-03T16:17:02.197Z,10.96
2019-04-03T16:19:35.753Z,10.91
2019-04-03T16:22:09.461Z,10.84
2019-04-03T16:24:41.678Z,10.86
2019-04-03T16:27:15.076Z,10.82
2019-04-03T16:29:45.904Z,10.91
2019-04-03T16:32:16.588Z,10.88
2019-04-03T16:34:50.703Z,10.89
2019-04-03T16:37:29.118Z,10.89
2019-04-03T16:40:05.776Z,10.96
2019-04-03T16:42:38.062Z,10.89
2019-04-03T16:45:09.846Z,10.85
2019-04-03T16:47:44.104Z,10.89
2019-04-03T16:50:16.287Z,10.88
2019-04-03T16:52:49.872Z,10.99
2019-04-03T16:55:22.819Z,11.01
2019-04-03T16:57:55.280Z,10.91
2019-04-03T17:00:31.347Z,10.89
2019-04-03T17:03:03.733Z,10.96
2019-04-03T17:05:38.520Z,10.92
2019-04-03T17:08:10.054Z,10.98
2019-04-03T17:10:42.454Z,10.91
2019-04-03T17:13:22.797Z,10.92
2019-04-03T17:15:55.054Z,10.93
2019-04-03T17:18:26.316Z,10.94
2019-04-03T17:20:57.065Z,10.97
2019-04-03T17:23:28.913Z,10.98
2019-04-03T17:26:03.021Z,10.94
2019-04-03T17:28:36.050Z,10.99
2019-04-03T17:31:11.396Z,10.96
2019-04-03T17:33:43.089Z,10.93
2019-04-03T17:36:14.103Z,10.84
2019-04-03T17:38:47.847Z,10.76
2019-04-03T17:41:18.536Z,10.69
2019-04-03T17:43:49.304Z,10.65
2019-04-03T17:46:19.662Z,10.56
2019-04-03T17:48:50.055Z,10.51
2019-04-03T17:51:23.471Z,10.46
2019-04-03T17:53:54.698Z,10.38
2019-04-03T17:56:26.475Z,10.31
2019-04-03T17:58:56.929Z,10.24
2019-04-03T18:01:32.083Z,10.20
2019-04-03T18:04:03.714Z,10.11
2019-04-03T18:06:35.106Z,10.16
2019-04-03T18:09:12.098Z,10.16
2019-04-03T18:11:48.856Z,10.17
2019-04-03T18:14:20.306Z,10.07
2019-04-03T18:16:51.368Z,10.04
2019-04-03T18:19:23.221Z,10.04
2019-04-03T18:21:54.219Z,10.02
2019-04-03T18:24:34.158Z,10.03
2019-04-03T18:27:08.286Z,10.05
2019-04-03T18:29:39.027Z,10.01
2019-04-03T18:32:11.082Z,10.07
2019-04-03T18:34:42.482Z,10.07
2019-04-03T18:37:13.520Z,10.12
2019-04-03T18:39:44.049Z,10.05
2019-04-03T18:42:14.701Z,9.93
2019-04-03T18:44:45.123Z,10.05
2019-04-03T18:47:15.902Z,10.07
2019-04-03T18:49:47.430Z,10.11
2019-04-03T18:52:17.978Z,10.07
2019-04-03T18:54:48.689Z,10.06
2019-04-03T18:57:20.218Z,9.96
2019-04-03T18:59:52.153Z,9.93
2019-04-03T19:02:22.961Z,9.88
2019-04-03T19:05:01.756Z,9.89
2019-04-03T19:07:25.424Z,9.85
2019-04-03T19:10:06.243Z,9.82
2019-04-03T19:12:35.586Z,9.73
2019-04-03T19:15:03.483Z,9.70
2019-04-03T19:17:37.224Z,9.73
2019-04-03T19:20:11.164Z,9.70
2019-04-03T19:22:41.325Z,9.75
2019-04-03T19:25:12.473Z,9.81
2019-04-03T19:27:49.901Z,9.82
2019-04-03T19:30:21.253Z,9.80
2019-04-03T19:32:53.174Z,9.86
2019-04-03T19:35:27.560Z,9.80
2019-04-03T19:38:05.023Z,9.88
2019-04-03T19:40:36.968Z,9.80
2019-04-03T19:43:09.769Z,9.82
2019-04-03T19:45:43.699Z,9.73
2019-04-03T19:48:14.069Z,9.76
2019-04-03T19:50:46.399Z,9.73
2019-04-03T19:53:16.914Z,9.69
2019-04-03T19:55:47.727Z,9.65
2019-04-03T19:58:21.263Z,9.60
2019-04-03T20:00:51.625Z,9.61
2019-04-03T20:03:24.825Z,9.61
2019-04-03T20:05:56.425Z,9.61
2019-04-03T20:08:28.068Z,9.61
2019-04-03T20:11:05.007Z,9.51
2019-04-03T20:13:50.179Z,9.48
2019-04-03T20:16:31.273Z,9.26
2019-04-03T20:18:58.973Z,9.36
2019-04-03T20:21:34.047Z,9.24
2019-04-03T20:24:07.950Z,9.19
2019-04-03T20:26:39.067Z,9.23
2019-04-03T20:29:09.742Z,9.21
2019-04-03T20:31:40.896Z,9.16
2019-04-03T20:34:14.423Z,9.21
2019-04-03T20:36:51.006Z,9.19
2019-04-03T20:39:26.973Z,9.23
2019-04-03T20:42:03.320Z,9.12
2019-04-03T20:44:38.680Z,9.13
2019-04-03T20:47:13.359Z,9.09
2019-04-03T20:49:46.690Z,9.06
2019-04-03T20:52:17.897Z,8.93
2019-04-03T20:54:52.933Z,8.84
2019-04-03T20:57:25.476Z,8.83
2019-04-03T21:00:03.511Z,8.91
2019-04-03T21:02:35.744Z,8.96
2019-04-03T21:05:09.453Z,8.89
2019-04-03T21:07:46.143Z,8.88
2019-04-03T21:10:16.613Z,8.94
2019-04-03T21:12:48.425Z,8.92
2019-04-03T21:15:21.391Z,8.63
2019-04-03T21:17:53.461Z,8.53
2019-04-03T21:20:24.310Z,8.48
2019-04-03T21:22:55.743Z,8.34
2019-04-03T21:25:27.038Z,8.28
2019-04-03T21:27:58.506Z,8.21
2019-04-03T21:30:28.874Z,8.17
2019-04-03T21:32:59.850Z,8.21
2019-04-03T21:35:30.752Z,8.22
2019-04-03T21:38:04.635Z,8.18
2019-04-03T21:40:35.392Z,8.17
2019-04-03T21:43:12.056Z,8.32
2019-04-03T21:45:42.686Z,8.30
2019-04-03T21:48:13.847Z,8.28
2019-04-03T21:50:44.563Z,8.34
2019-04-03T21:53:15.782Z,8.35
2019-04-03T21:55:51.778Z,8.39
2019-04-03T21:58:25.465Z,8.48
2019-04-03T22:01:19.314Z,8.50
2019-04-03T22:03:51.648Z,8.50
2019-04-03T22:06:26.587Z,8.44
2019-04-03T22:08:59.689Z,8.43
2019-04-03T22:11:29.078Z,8.47
2019-04-03T22:14:04.926Z,8.43
2019-04-03T22:16:38.509Z,8.44
2019-04-03T22:19:10.282Z,8.47
2019-04-03T22:21:41.185Z,8.37
2019-04-03T22:24:12.052Z,8.36
2019-04-03T22:26:43.226Z,8.29
2019-04-03T22:29:13.825Z,8.22
2019-04-03T22:31:44.946Z,8.21
2019-04-03T22:34:15.481Z,8.11
2019-04-03T22:36:46.029Z,8.16
2019-04-03T22:39:17.597Z,8.21
2019-04-03T22:41:48.040Z,8.24
2019-04-03T22:44:18.416Z,8.17
2019-04-03T22:46:49.094Z,8.14
2019-04-03T22:49:20.002Z,8.15
2019-04-03T22:51:50.749Z,8.13
2019-04-03T22:54:21.552Z,8.17
2019-04-03T22:56:53.106Z,8.24
2019-04-03T22:59:24.429Z,8.31
2019-04-03T23:01:54.828Z,8.29
2019-04-03T23:04:25.563Z,8.29
2019-04-03T23:06:56.023Z,8.22
2019-04-03T23:09:26.879Z,8.14
2019-04-03T23:12:02.685Z,8.07
2019-04-03T23:14:33.109Z,8.09
2019-04-03T23:17:03.585Z,8.10
2019-04-03T23:19:34.020Z,8.11
2019-04-03T23:22:04.547Z,8.12
2019-04-03T23:24:35.347Z,8.11
2019-04-03T23:27:06.249Z,8.10
2019-04-03T23:29:37.109Z,8.18
2019-04-03T23:32:07.481Z,8.23
2019-04-03T23:34:38.051Z,8.16
2019-04-03T23:37:16.968Z,8.22
2019-04-03T23:39:47.325Z,8.23
2019-04-03T23:42:17.636Z,8.22
2019-04-03T23:44:48.158Z,8.13
2019-04-03T23:47:19.777Z,8.17
2019-04-03T23:49:51.085Z,8.14
2019-04-03T23:52:21.935Z,8.20
2019-04-03T23:54:54.543Z,8.21
2019-04-03T23:57:25.001Z,8.15
2019-04-03T23:59:55.925Z,8.10
